createdAt,value
2022-12-18T00:01:35.480Z,55.25
2022-12-18T00:04:06.322Z,55.42
2022-12-18T00:06:35.095Z,56.30
2022-12-18T00:09:04.197Z,51.78
2022-12-18T00:11:33.080Z,54.58
2022-12-18T00:14:00.809Z,53.65
2022-12-18T00:16:30.904Z,51.75
2022-12-18T00:18:58.856Z,52.50
2022-12-18T00:21:27.882Z,53.60
2022-12-18T00:23:55.616Z,52.75
2022-12-18T00:26:25.379Z,50.35
2022-12-18T00:29:00.761Z,51.92
2022-12-18T00:31:28.876Z,51.17
2022-12-18T00:33:57.375Z,50.60
2022-12-18T00:36:30.636Z,50.42
2022-12-18T00:38:59.423Z,50.30
2022-12-18T00:41:46.372Z,50.42
2022-12-18T00:44:15.961Z,48.92
2022-12-18T00:46:44.959Z,46.10
2022-12-18T00:49:12.528Z,47.78
2022-12-18T00:51:40.730Z,45.20
2022-12-18T00:54:08.283Z,44.97
2022-12-18T00:56:48.370Z,44.38
2022-12-18T00:59:19.581Z,46.30
2022-12-18T01:01:47.896Z,45.20
2022-12-18T01:04:15.614Z,47.70
2022-12-18T01:06:46.363Z,46.80
2022-12-18T01:09:13.959Z,43.03
2022-12-18T01:11:41.839Z,43.53
2022-12-18T01:14:09.986Z,44.38
2022-12-18T01:16:38.625Z,44.45
2022-12-18T01:19:06.039Z,44.47
2022-12-18T01:21:34.039Z,43.35
2022-12-18T01:24:05.757Z,42.67
2022-12-18T01:26:33.557Z,44.08
2022-12-18T01:29:01.011Z,43.83
2022-12-18T01:31:33.841Z,43.33
2022-12-18T01:34:05.398Z,42.38
2022-12-18T01:36:35.958Z,41.67
2022-12-18T01:39:14.892Z,37.67
2022-12-18T01:42:01.891Z,37.83
2022-12-18T01:44:58.995Z,38.58
2022-12-18T01:47:50.497Z,37.30
2022-12-18T01:50:19.138Z,35.55
2022-12-18T01:52:50.972Z,37.17
2022-12-18T01:55:21.818Z,36.33
2022-12-18T01:57:52.663Z,37.35
2022-12-18T02:00:21.959Z,38.20
2022-12-18T02:02:49.978Z,36.85
2022-12-18T02:05:34.356Z,36.42
2022-12-18T02:08:17.831Z,36.15
2022-12-18T02:13:57.106Z,36.30
2022-12-18T02:16:34.496Z,33.63
2022-12-18T02:19:17.553Z,34.80
2022-12-18T02:21:55.937Z,33.47
2022-12-18T02:24:36.329Z,33.05
2022-12-18T02:27:09.398Z,31.52
2022-12-18T02:29:57.563Z,30.98
2022-12-18T02:32:34.843Z,33.20
2022-12-18T02:35:04.958Z,31.92
2022-12-18T02:37:35.055Z,31.83
2022-12-18T02:40:05.960Z,30.15
2022-12-18T02:42:36.098Z,30.25
2022-12-18T02:45:06.980Z,31.10
2022-12-18T02:47:41.511Z,31.13
2022-12-18T02:50:16.008Z,32.88
2022-12-18T02:52:58.736Z,30.33
2022-12-18T02:55:31.970Z,30.80
2022-12-18T02:58:13.474Z,29.88
2022-12-18T03:01:00.292Z,31.27
2022-12-18T03:03:43.987Z,30.15
2022-12-18T03:06:19.378Z,29.10
2022-12-18T03:08:55.647Z,30.45
2022-12-18T03:11:46.387Z,30.63
2022-12-18T03:14:17.559Z,31.83
2022-12-18T03:16:51.854Z,32.63
2022-12-18T03:19:26.811Z,34.83
2022-12-18T03:21:59.503Z,32.92
2022-12-18T03:24:31.179Z,34.92
2022-12-18T03:27:03.498Z,34.25
2022-12-18T03:29:41.426Z,37.85
2022-12-18T03:32:19.673Z,41.78
2022-12-18T03:34:50.690Z,42.28
2022-12-18T03:37:19.952Z,43.60
2022-12-18T03:39:48.870Z,43.38
2022-12-18T03:42:37.480Z,42.80
2022-12-18T03:45:55.423Z,41.58
2022-12-18T03:51:27.737Z,39.38
2022-12-18T03:54:05.051Z,39.20
2022-12-18T03:56:43.094Z,38.28
2022-12-18T03:59:16.062Z,38.00
2022-12-18T04:01:48.965Z,38.42
2022-12-18T04:04:19.680Z,37.65
2022-12-18T04:06:50.903Z,35.70
2022-12-18T04:09:21.556Z,36.03
2022-12-18T04:11:50.151Z,35.55
2022-12-18T04:14:18.426Z,35.60
2022-12-18T04:16:49.162Z,33.60
2022-12-18T04:19:18.699Z,34.75
2022-12-18T04:21:48.871Z,33.58
2022-12-18T04:24:16.750Z,33.65
2022-12-18T04:26:53.311Z,32.78
2022-12-18T04:29:26.877Z,34.38
2022-12-18T04:31:55.247Z,35.80
2022-12-18T04:34:23.955Z,33.83
2022-12-18T04:36:54.107Z,34.15
2022-12-18T04:39:23.186Z,35.55
2022-12-18T04:41:52.703Z,34.97
2022-12-18T04:44:19.975Z,35.08
2022-12-18T04:46:47.373Z,36.60
2022-12-18T04:49:15.440Z,38.53
2022-12-18T04:51:42.875Z,36.47
2022-12-18T04:54:10.588Z,37.95
2022-12-18T04:56:37.852Z,38.00
2022-12-18T04:59:05.820Z,35.67
2022-12-18T05:01:35.128Z,35.55
2022-12-18T05:04:03.846Z,35.15
2022-12-18T05:06:31.589Z,35.92
2022-12-18T05:08:59.316Z,35.80
2022-12-18T05:11:26.842Z,36.65
2022-12-18T05:13:54.050Z,34.88
2022-12-18T05:16:21.392Z,35.25
2022-12-18T05:18:48.791Z,34.05
2022-12-18T05:21:17.923Z,34.65
2022-12-18T05:23:45.188Z,33.55
2022-12-18T05:26:17.761Z,32.53
2022-12-18T05:28:45.981Z,33.83
2022-12-18T05:31:13.963Z,33.15
2022-12-18T05:33:41.826Z,33.45
2022-12-18T05:36:10.719Z,31.48
2022-12-18T05:38:40.503Z,30.52
2022-12-18T05:41:09.363Z,30.38
2022-12-18T05:43:39.023Z,29.70
2022-12-18T05:46:14.223Z,30.08
2022-12-18T05:48:42.539Z,31.58
2022-12-18T05:51:15.783Z,32.42
2022-12-18T05:53:44.246Z,31.20
2022-12-18T05:56:17.487Z,31.75
2022-12-18T05:58:45.342Z,30.80
2022-12-18T06:01:17.002Z,31.20
2022-12-18T06:03:44.978Z,31.80
2022-12-18T06:06:24.459Z,32.72
2022-12-18T06:08:52.938Z,30.92
2022-12-18T06:11:25.506Z,30.42
2022-12-18T06:13:59.093Z,31.27
2022-12-18T06:16:28.135Z,29.10
2022-12-18T06:18:59.867Z,28.67
2022-12-18T06:21:28.355Z,29.30
2022-12-18T06:23:55.919Z,29.77
2022-12-18T06:26:28.016Z,29.95
2022-12-18T06:28:56.126Z,29.55
2022-12-18T06:31:23.936Z,30.67
2022-12-18T06:33:51.310Z,30.10
2022-12-18T06:36:18.700Z,27.55
2022-12-18T06:38:46.145Z,27.75
2022-12-18T06:41:16.107Z,26.15
2022-12-18T06:43:44.807Z,25.02
2022-12-18T06:46:13.193Z,26.02
2022-12-18T06:48:41.374Z,26.20
2022-12-18T06:51:08.759Z,26.25
2022-12-18T06:53:36.069Z,25.27
2022-12-18T06:56:09.820Z,26.50
2022-12-18T06:58:40.042Z,26.88
2022-12-18T07:01:11.720Z,27.00
2022-12-18T07:03:41.502Z,26.08
2022-12-18T07:06:20.606Z,27.88
2022-12-18T07:08:48.962Z,27.98
2022-12-18T07:11:17.863Z,27.63
2022-12-18T07:13:46.177Z,27.67
2022-12-18T07:16:24.701Z,28.85
2022-12-18T07:18:55.177Z,29.52
2022-12-18T07:21:24.772Z,28.73
2022-12-18T07:23:52.304Z,29.02
2022-12-18T07:26:22.606Z,27.08
2022-12-18T07:28:50.440Z,28.80
2022-12-18T07:31:23.136Z,26.88
2022-12-18T07:33:51.714Z,26.02
2022-12-18T07:36:19.468Z,29.48
2022-12-18T07:38:50.932Z,26.73
2022-12-18T07:41:19.514Z,27.63
2022-12-18T07:43:47.801Z,28.60
2022-12-18T07:46:17.004Z,28.48
2022-12-18T07:48:46.247Z,30.23
2022-12-18T07:51:18.461Z,29.77
2022-12-18T07:53:45.833Z,30.80
2022-12-18T07:56:31.191Z,28.00
2022-12-18T07:59:00.071Z,27.02
2022-12-18T08:01:30.431Z,28.45
2022-12-18T08:03:59.072Z,26.73
2022-12-18T08:06:27.300Z,26.90
2022-12-18T08:08:56.097Z,25.88
2022-12-18T08:11:25.509Z,25.98
2022-12-18T08:13:54.044Z,26.55
2022-12-18T08:16:22.669Z,26.25
2022-12-18T08:18:50.923Z,25.73
2022-12-18T08:21:29.551Z,27.67
2022-12-18T08:24:01.858Z,29.08
2022-12-18T08:26:31.647Z,26.30
2022-12-18T08:29:00.587Z,30.77
2022-12-18T08:31:30.423Z,27.92
2022-12-18T08:33:58.347Z,27.30
2022-12-18T08:36:26.053Z,28.33
2022-12-18T08:38:54.869Z,27.23
2022-12-18T08:41:22.843Z,27.55
2022-12-18T08:44:09.280Z,26.98
2022-12-18T08:46:39.366Z,26.10
2022-12-18T08:49:08.014Z,26.45
2022-12-18T08:51:35.927Z,28.10
2022-12-18T08:54:03.400Z,25.30
2022-12-18T08:56:32.034Z,25.30
2022-12-18T08:58:59.628Z,24.73
2022-12-18T09:01:27.303Z,26.23
2022-12-18T09:03:54.771Z,26.52
2022-12-18T09:06:23.907Z,29.42
2022-12-18T09:08:51.653Z,27.52
2022-12-18T09:11:27.763Z,27.23
2022-12-18T09:13:56.807Z,26.15
2022-12-18T09:16:30.344Z,26.27
2022-12-18T09:19:00.684Z,26.55
2022-12-18T09:21:31.660Z,26.70
2022-12-18T09:24:01.996Z,27.27
2022-12-18T09:26:29.563Z,26.88
2022-12-18T09:28:57.166Z,26.63
2022-12-18T09:31:25.744Z,28.50
2022-12-18T09:33:53.139Z,28.42
2022-12-18T09:36:21.065Z,29.27
2022-12-18T09:38:49.191Z,26.52
2022-12-18T09:41:37.430Z,26.15
2022-12-18T09:44:10.999Z,28.17
2022-12-18T09:46:45.295Z,28.58
2022-12-18T09:49:18.852Z,28.23
2022-12-18T09:51:55.443Z,32.00
2022-12-18T09:54:34.070Z,28.15
2022-12-18T09:57:01.551Z,29.35
2022-12-18T09:59:37.256Z,28.25
2022-12-18T10:02:15.812Z,30.48
2022-12-18T10:04:43.823Z,28.80
2022-12-18T10:07:22.380Z,29.73
2022-12-18T10:10:01.847Z,30.17
2022-12-18T10:12:40.105Z,30.70
2022-12-18T10:15:13.641Z,30.23
2022-12-18T10:17:59.271Z,31.30
2022-12-18T10:20:46.338Z,33.08
2022-12-18T10:23:42.473Z,32.05
2022-12-18T10:26:13.818Z,31.30
2022-12-18T10:28:43.379Z,31.42
2022-12-18T10:31:38.062Z,30.35
2022-12-18T10:34:05.852Z,30.23
2022-12-18T10:36:33.136Z,30.73
2022-12-18T10:39:23.388Z,30.55
2022-12-18T10:41:50.847Z,31.92
2022-12-18T10:44:26.761Z,37.58
2022-12-18T10:47:06.167Z,29.73
2022-12-18T10:49:36.952Z,29.20
2022-12-18T10:52:16.224Z,30.17
2022-12-18T10:54:50.873Z,29.65
2022-12-18T10:57:41.398Z,29.77
2022-12-18T11:00:23.387Z,31.38
2022-12-18T11:02:51.360Z,29.38
2022-12-18T11:05:34.946Z,29.42
2022-12-18T11:08:02.474Z,28.88
2022-12-18T11:10:33.662Z,30.45
2022-12-18T11:13:21.284Z,29.55
2022-12-18T11:15:49.767Z,28.60
2022-12-18T11:21:52.148Z,29.60
2022-12-18T11:24:40.822Z,27.88
2022-12-18T11:27:19.410Z,31.08
2022-12-18T11:29:47.235Z,29.45
2022-12-18T11:32:33.027Z,30.98
2022-12-18T11:35:38.595Z,26.88
2022-12-18T11:38:18.345Z,26.88
2022-12-18T11:40:51.412Z,26.45
2022-12-18T11:43:27.131Z,29.08
2022-12-18T11:46:00.195Z,28.60
2022-12-18T11:48:55.039Z,31.50
2022-12-18T11:51:33.369Z,34.72
2022-12-18T11:54:02.389Z,35.03
2022-12-18T11:56:51.282Z,33.30
2022-12-18T12:00:00.226Z,34.45
2022-12-18T12:02:58.246Z,33.70
2022-12-18T12:05:47.695Z,32.17
2022-12-18T12:09:02.660Z,35.35
2022-12-18T12:12:12.746Z,36.20
2022-12-18T12:14:54.893Z,33.28
2022-12-18T12:17:23.389Z,33.40
2022-12-18T12:20:00.100Z,33.90
2022-12-18T12:22:33.435Z,33.15
2022-12-18T12:25:22.911Z,33.58
2022-12-18T12:27:51.212Z,34.20
2022-12-18T12:30:52.511Z,35.00
2022-12-18T12:33:39.158Z,35.17
2022-12-18T12:36:32.647Z,38.35
2022-12-18T12:39:06.113Z,34.50
2022-12-18T12:41:54.443Z,33.95
2022-12-18T12:44:28.494Z,33.10
2022-12-18T12:47:01.702Z,39.17
2022-12-18T12:49:39.037Z,34.00
2022-12-18T12:52:33.167Z,32.95
2022-12-18T12:55:02.879Z,34.45
2022-12-18T12:58:06.695Z,32.20
2022-12-18T13:00:48.839Z,32.92
2022-12-18T13:03:40.845Z,33.42
2022-12-18T13:09:15.290Z,33.35
2022-12-18T13:12:04.515Z,35.25
2022-12-18T13:14:39.750Z,33.17
2022-12-18T13:17:20.978Z,34.40
2022-12-18T13:20:03.448Z,33.33
2022-12-18T13:25:37.368Z,34.53
2022-12-18T13:28:16.824Z,33.38
2022-12-18T13:30:55.875Z,33.72
2022-12-18T13:33:25.736Z,34.10
2022-12-18T13:36:28.326Z,34.70
2022-12-18T13:41:45.594Z,33.50
2022-12-18T13:44:25.067Z,35.55
2022-12-18T13:46:53.434Z,34.28
2022-12-18T13:49:31.488Z,36.92
2022-12-18T13:51:59.442Z,34.92
2022-12-18T13:54:42.499Z,36.25
2022-12-18T13:57:55.630Z,36.42
2022-12-18T14:00:24.272Z,37.10
2022-12-18T14:02:52.599Z,36.47
2022-12-18T14:05:32.756Z,34.80
2022-12-18T14:08:11.144Z,37.13
2022-12-18T14:10:49.772Z,37.13
2022-12-18T14:13:30.259Z,32.90
2022-12-18T14:15:59.268Z,33.05
2022-12-18T14:18:51.670Z,33.38
2022-12-18T14:21:24.396Z,33.15
2022-12-18T14:24:05.671Z,34.95
2022-12-18T14:26:34.561Z,35.45
2022-12-18T14:29:20.445Z,37.38
2022-12-18T14:32:17.378Z,35.22
2022-12-18T14:34:46.564Z,35.38
2022-12-18T14:37:17.229Z,36.15
2022-12-18T14:39:55.966Z,37.03
2022-12-18T14:42:23.662Z,37.75
2022-12-18T14:45:13.047Z,36.35
2022-12-18T14:47:38.487Z,37.20
2022-12-18T14:50:15.110Z,35.58
2022-12-18T14:52:42.685Z,34.95
2022-12-18T14:55:20.657Z,40.88
2022-12-18T14:57:53.704Z,42.22
2022-12-18T15:00:23.925Z,40.05
2022-12-18T15:02:55.458Z,41.20
2022-12-18T15:05:32.325Z,37.65
2022-12-18T15:08:03.026Z,41.90
2022-12-18T15:10:33.783Z,43.17
2022-12-18T15:13:02.496Z,39.58
2022-12-18T15:15:39.043Z,37.85
2022-12-18T15:18:09.753Z,37.75
2022-12-18T15:21:00.589Z,37.85
2022-12-18T15:23:47.316Z,35.78
2022-12-18T15:26:17.086Z,34.85
2022-12-18T15:28:53.742Z,38.90
2022-12-18T15:31:31.199Z,39.60
2022-12-18T15:34:00.045Z,40.55
2022-12-18T15:36:31.305Z,46.95
2022-12-18T15:39:04.547Z,39.97
2022-12-18T15:41:35.260Z,38.33
2022-12-18T15:44:16.802Z,37.47
2022-12-18T15:46:44.541Z,36.92
2022-12-18T15:49:11.844Z,36.83
2022-12-18T15:51:40.110Z,37.67
2022-12-18T15:54:13.902Z,35.97
2022-12-18T15:57:00.473Z,36.38
2022-12-18T15:59:28.195Z,35.85
2022-12-18T16:01:55.969Z,36.78
2022-12-18T16:04:24.578Z,36.03
2022-12-18T16:07:14.477Z,35.80
2022-12-18T16:09:42.983Z,36.88
2022-12-18T16:12:20.254Z,37.45
2022-12-18T16:14:47.539Z,38.80
2022-12-18T16:17:15.644Z,39.35
2022-12-18T16:19:43.013Z,37.33
2022-12-18T16:22:31.517Z,37.35
2022-12-18T16:24:59.073Z,40.40
2022-12-18T16:27:26.770Z,39.95
2022-12-18T16:29:54.620Z,39.90
2022-12-18T16:32:23.438Z,38.22
2022-12-18T16:34:50.960Z,38.47
2022-12-18T16:37:18.758Z,37.17
2022-12-18T16:39:46.103Z,42.20
2022-12-18T16:42:19.685Z,38.72
2022-12-18T16:44:49.121Z,38.08
2022-12-18T16:47:17.614Z,37.22
2022-12-18T16:49:46.181Z,39.05
2022-12-18T16:52:14.323Z,37.50
2022-12-18T16:54:41.649Z,37.47
2022-12-18T16:57:13.487Z,37.10
2022-12-18T16:59:41.011Z,35.58
2022-12-18T17:02:18.168Z,36.83
2022-12-18T17:04:54.839Z,37.88
2022-12-18T17:07:22.816Z,41.20
2022-12-18T17:09:51.186Z,40.28
2022-12-18T17:12:19.464Z,39.03
2022-12-18T17:14:47.368Z,40.92
2022-12-18T17:17:23.279Z,44.35
2022-12-18T17:19:52.608Z,47.55
2022-12-18T17:22:21.179Z,39.88
2022-12-18T17:24:48.770Z,41.45
2022-12-18T17:27:16.019Z,38.78
2022-12-18T17:29:47.735Z,37.00
2022-12-18T17:32:17.301Z,38.22
2022-12-18T17:34:45.172Z,37.50
2022-12-18T17:37:12.635Z,39.80
2022-12-18T17:39:40.099Z,39.40
2022-12-18T17:42:08.643Z,42.20
2022-12-18T17:44:38.096Z,40.25
2022-12-18T17:47:06.146Z,41.65
2022-12-18T17:49:34.071Z,40.15
2022-12-18T17:52:01.599Z,40.50
2022-12-18T17:54:28.976Z,42.58
2022-12-18T17:56:56.555Z,45.53
2022-12-18T17:59:24.343Z,46.20
2022-12-18T18:01:51.730Z,45.03
2022-12-18T18:04:19.527Z,46.63
2022-12-18T18:06:47.412Z,49.45
2022-12-18T18:09:16.018Z,48.35
2022-12-18T18:12:04.264Z,44.03
2022-12-18T18:14:31.831Z,43.88
2022-12-18T18:17:04.273Z,47.75
2022-12-18T18:19:34.228Z,46.10
2022-12-18T18:22:02.920Z,49.90
2022-12-18T18:24:30.506Z,138.55
2022-12-18T18:26:59.951Z,54.22
2022-12-18T18:29:30.293Z,45.17
2022-12-18T18:31:58.683Z,55.00
2022-12-18T18:34:31.207Z,43.92
2022-12-18T18:36:59.422Z,55.95
2022-12-18T18:39:26.998Z,44.83
2022-12-18T18:41:55.846Z,41.47
2022-12-18T18:44:26.060Z,37.50
2022-12-18T18:46:58.519Z,38.95
2022-12-18T18:49:28.351Z,42.17
2022-12-18T18:51:57.083Z,39.97
2022-12-18T18:54:25.616Z,41.97
2022-12-18T18:59:40.451Z,40.42
2022-12-18T19:02:15.877Z,40.63
2022-12-18T19:04:45.969Z,39.35
2022-12-18T19:07:25.601Z,39.95
2022-12-18T19:10:04.016Z,46.42
2022-12-18T19:12:52.809Z,42.40
2022-12-18T19:15:22.656Z,39.55
2022-12-18T19:17:49.987Z,40.67
2022-12-18T19:20:18.207Z,39.63
2022-12-18T19:22:46.092Z,42.75
2022-12-18T19:25:38.232Z,49.03
2022-12-18T19:28:09.981Z,63.25
2022-12-18T19:30:49.123Z,45.90
2022-12-18T19:33:41.971Z,42.60
2022-12-18T19:36:16.090Z,41.95
2022-12-18T19:38:45.352Z,38.83
2022-12-18T19:41:14.799Z,42.38
2022-12-18T19:43:43.545Z,48.42
2022-12-18T19:46:16.733Z,38.72
2022-12-18T19:48:45.184Z,33.08
2022-12-18T19:51:20.268Z,32.03
2022-12-18T19:53:50.541Z,34.80
2022-12-18T19:56:23.243Z,36.75
2022-12-18T19:58:51.079Z,40.45
2022-12-18T20:01:22.028Z,41.53
2022-12-18T20:03:52.685Z,42.97
2022-12-18T20:06:25.467Z,44.08
2022-12-18T20:08:54.636Z,41.30
2022-12-18T20:11:29.743Z,43.03
2022-12-18T20:13:58.559Z,44.83
2022-12-18T20:16:26.408Z,43.30
2022-12-18T20:18:54.176Z,44.58
2022-12-18T20:21:21.751Z,45.08
2022-12-18T20:23:49.146Z,45.42
2022-12-18T20:26:16.567Z,45.33
2022-12-18T20:28:44.554Z,48.42
2022-12-18T20:31:13.921Z,46.22
2022-12-18T20:33:43.091Z,44.80
2022-12-18T20:36:21.392Z,45.95
2022-12-18T20:38:58.580Z,44.75
2022-12-18T20:41:37.430Z,44.40
2022-12-18T20:44:10.966Z,45.30
2022-12-18T20:46:56.317Z,48.08
2022-12-18T20:49:25.562Z,51.88
2022-12-18T20:51:54.111Z,47.33
2022-12-18T20:54:22.273Z,49.58
2022-12-18T20:56:50.382Z,47.85
2022-12-18T20:59:17.953Z,49.22
2022-12-18T21:01:48.868Z,50.65
2022-12-18T21:04:19.157Z,49.00
2022-12-18T21:06:53.291Z,50.53
2022-12-18T21:09:23.855Z,49.45
2022-12-18T21:12:12.400Z,49.47
2022-12-18T21:14:43.042Z,46.42
2022-12-18T21:17:11.548Z,48.58
2022-12-18T21:19:39.363Z,48.45
2022-12-18T21:22:06.733Z,46.72
2022-12-18T21:24:34.696Z,45.88
2022-12-18T21:27:02.526Z,45.47
2022-12-18T21:29:30.157Z,48.00
2022-12-18T21:31:57.673Z,45.22
2022-12-18T21:34:28.159Z,45.70
2022-12-18T21:36:57.296Z,44.22
2022-12-18T21:39:26.207Z,45.70
2022-12-18T21:42:12.173Z,46.47
2022-12-18T21:44:41.873Z,42.80
2022-12-18T21:47:20.904Z,44.35
2022-12-18T21:49:49.640Z,44.55
2022-12-18T21:52:17.583Z,43.22
2022-12-18T21:54:45.675Z,44.63
2022-12-18T21:57:13.622Z,43.50
2022-12-18T21:59:43.326Z,43.72
2022-12-18T22:02:17.315Z,45.78
2022-12-18T22:04:46.104Z,43.17
2022-12-18T22:07:16.214Z,44.75
2022-12-18T22:09:43.650Z,46.80
2022-12-18T22:12:35.374Z,46.30
2022-12-18T22:17:33.615Z,39.75
2022-12-18T22:20:01.511Z,40.70
2022-12-18T22:22:28.837Z,40.88
2022-12-18T22:24:56.110Z,39.35
2022-12-18T22:27:23.446Z,40.58
2022-12-18T22:30:06.344Z,43.05
2022-12-18T22:32:35.843Z,39.67
2022-12-18T22:35:09.447Z,41.80
2022-12-18T22:37:40.137Z,43.40
2022-12-18T22:40:08.628Z,43.25
2022-12-18T22:42:36.428Z,42.40
2022-12-18T22:45:04.066Z,40.80
2022-12-18T22:47:31.466Z,40.63
2022-12-18T22:49:59.282Z,40.95
2022-12-18T22:52:27.139Z,41.58
2022-12-18T22:54:55.140Z,41.42
2022-12-18T22:57:23.182Z,41.22
2022-12-18T22:59:51.330Z,39.08
2022-12-18T23:02:19.580Z,39.72
2022-12-18T23:04:47.750Z,40.70
2022-12-18T23:07:16.755Z,39.28
2022-12-18T23:09:44.865Z,38.00
2022-12-18T23:12:20.419Z,38.65
2022-12-18T23:14:47.876Z,38.92
2022-12-18T23:17:15.214Z,37.95
2022-12-18T23:19:48.506Z,38.50
2022-12-18T23:22:16.996Z,36.60
2022-12-18T23:24:45.443Z,37.78
2022-12-18T23:27:12.743Z,37.83
2022-12-18T23:29:40.731Z,37.30
2022-12-18T23:32:08.382Z,36.72
2022-12-18T23:34:35.751Z,37.42
2022-12-18T23:37:03.847Z,38.05
2022-12-18T23:39:31.682Z,36.78
2022-12-18T23:41:59.393Z,37.53
2022-12-18T23:44:27.130Z,37.72
2022-12-18T23:46:54.776Z,37.63
2022-12-18T23:49:22.452Z,37.42
2022-12-18T23:51:50.294Z,37.65
2022-12-18T23:54:21.822Z,37.15
2022-12-18T23:57:01.655Z,36.95
2022-12-18T23:59:29.444Z,36.63
